createdAt,value
2017-08-09T15:54:54.913Z,45.10
2017-08-09T15:57:52.235Z,44.30
2017-08-09T16:00:50.744Z,46.60
2017-08-09T16:03:48.316Z,46.60
2017-08-09T16:06:45.881Z,45.70
2017-08-09T16:09:43.978Z,47.00
2017-08-09T16:12:41.851Z,47.00
2017-08-09T16:15:39.292Z,47.10
2017-08-09T16:18:37.924Z,48.20
2017-08-09T16:21:36.311Z,49.00
2017-08-09T16:24:35.762Z,49.70
2017-08-09T16:27:33.138Z,49.70
2017-08-09T16:30:30.632Z,48.30
2017-08-09T16:33:29.180Z,49.00
2017-08-09T16:36:26.529Z,49.00
2017-08-09T16:39:23.951Z,49.60
2017-08-09T16:42:21.600Z,50.40
2017-08-09T16:45:18.936Z,50.60
2017-08-09T16:48:16.598Z,51.00
2017-08-09T16:51:13.968Z,50.70
2017-08-09T16:54:12.608Z,51.20
2017-08-09T16:57:10.087Z,51.10
2017-08-09T17:00:07.610Z,51.50
2017-08-09T17:03:04.993Z,51.40
2017-08-09T17:06:02.518Z,51.60
2017-08-09T17:09:00.016Z,51.70
2017-08-09T17:11:57.488Z,51.70
2017-08-09T17:14:54.891Z,52.10
2017-08-09T17:17:52.360Z,52.40
2017-08-09T17:20:49.948Z,52.60
2017-08-09T17:23:47.514Z,52.90
2017-08-09T17:26:44.997Z,53.20
2017-08-09T17:29:42.691Z,53.10
2017-08-09T17:32:41.220Z,53.90
2017-08-09T17:35:38.803Z,53.90
2017-08-09T17:38:36.265Z,53.90
2017-08-09T17:41:33.811Z,55.00
2017-08-09T17:44:31.411Z,55.00
2017-08-09T17:47:28.983Z,55.30
2017-08-09T17:50:26.595Z,55.90
2017-08-09T17:53:24.548Z,56.20
2017-08-09T17:56:22.635Z,56.80
2017-08-09T17:59:20.273Z,56.60
2017-08-09T18:02:17.811Z,57.10
2017-08-09T18:05:16.251Z,57.40
2017-08-09T18:08:13.812Z,57.30
2017-08-09T18:11:11.235Z,57.80
2017-08-09T18:14:08.723Z,58.00
2017-08-09T18:17:06.294Z,58.20
2017-08-09T18:20:03.879Z,58.50
2017-08-09T18:23:01.418Z,60.10
2017-08-09T18:25:58.885Z,59.40
2017-08-09T18:28:56.467Z,59.50
2017-08-09T18:31:53.812Z,60.00
2017-08-09T18:34:51.415Z,60.00
2017-08-09T18:37:48.836Z,60.00
2017-08-09T18:40:46.247Z,59.70
2017-08-09T18:43:43.663Z,60.10
2017-08-09T18:46:41.212Z,60.30
2017-08-09T18:49:38.671Z,60.80
2017-08-09T18:52:36.208Z,61.30
2017-08-09T18:55:33.674Z,61.70
2017-08-09T18:58:31.348Z,62.70
2017-08-09T19:01:28.815Z,62.40
2017-08-09T19:04:26.400Z,61.90
2017-08-09T19:07:23.846Z,64.10
2017-08-09T19:10:22.325Z,65.20
2017-08-09T19:13:19.636Z,67.60
2017-08-09T19:16:17.213Z,68.80
2017-08-09T19:19:14.710Z,70.40
2017-08-09T19:22:12.046Z,72.60
2017-08-09T19:25:12.492Z,70.90
2017-08-09T19:28:10.332Z,73.10
2017-08-09T19:31:07.731Z,74.90
2017-08-09T19:34:05.155Z,77.40
2017-08-09T19:37:02.652Z,78.00
2017-08-09T19:40:00.317Z,78.50
2017-08-09T19:42:57.699Z,80.50
2017-08-09T19:45:56.216Z,82.40
2017-08-09T19:48:53.949Z,82.30
2017-08-09T19:51:52.634Z,81.70
2017-08-09T19:54:51.308Z,81.70
2017-08-09T19:57:48.945Z,82.50
2017-08-09T20:00:46.615Z,82.30
2017-08-09T20:03:44.275Z,82.30
2017-08-09T20:06:41.666Z,83.40
2017-08-09T20:09:39.373Z,83.80
2017-08-09T20:12:36.947Z,85.10
2017-08-09T20:15:34.558Z,85.40
2017-08-09T20:18:33.046Z,87.60
2017-08-09T20:21:31.771Z,87.30
2017-08-09T20:24:29.138Z,87.30
2017-08-09T20:27:26.830Z,86.20
2017-08-09T20:57:28.411Z,89.60
2017-08-09T21:00:26.045Z,89.30
2017-08-09T21:03:23.406Z,90.00
2017-08-09T21:06:22.011Z,89.70
2017-08-09T21:09:21.785Z,89.60
2017-08-09T21:12:20.402Z,90.30
2017-08-09T21:15:19.861Z,90.00
2017-08-09T21:18:17.363Z,89.80
2017-08-09T21:21:15.210Z,89.30
2017-08-09T21:24:12.675Z,89.80
2017-08-09T21:27:11.324Z,90.30
2017-08-09T21:30:10.943Z,90.30
